sensor_id;sensor_type;location;lat;lon;timestamp;P1;durP1;ratioP1;P2;durP2;ratioP2
60060;SDS011;45933;51.336;12.612;2023-04-06T00:02:10;7.37;;;4.30;;
60060;SDS011;45933;51.336;12.612;2023-04-06T00:04:35;7.13;;;4.30;;
60060;SDS011;45933;51.336;12.612;2023-04-06T00:07:01;8.27;;;4.20;;
60060;SDS011;45933;51.336;12.612;2023-04-06T00:09:26;7.53;;;4.67;;
60060;SDS011;45933;51.336;12.612;2023-04-06T00:11:51;6.57;;;4.70;;
60060;SDS011;45933;51.336;12.612;2023-04-06T00:14:16;8.17;;;4.10;;
60060;SDS011;45933;51.336;12.612;2023-04-06T00:16:42;7.70;;;4.27;;
60060;SDS011;45933;51.336;12.612;2023-04-06T00:19:07;6.20;;;4.17;;
60060;SDS011;45933;51.336;12.612;2023-04-06T00:21:32;4.93;;;3.73;;
60060;SDS011;45933;51.336;12.612;2023-04-06T00:23:58;8.00;;;4.53;;
60060;SDS011;45933;51.336;12.612;2023-04-06T00:26:23;7.20;;;4.20;;
60060;SDS011;45933;51.336;12.612;2023-04-06T00:28:48;8.57;;;4.73;;
60060;SDS011;45933;51.336;12.612;2023-04-06T00:31:16;7.20;;;4.10;;
60060;SDS011;45933;51.336;12.612;2023-04-06T00:33:42;6.53;;;4.07;;
60060;SDS011;45933;51.336;12.612;2023-04-06T00:36:07;7.60;;;4.53;;
60060;SDS011;45933;51.336;12.612;2023-04-06T00:38:32;6.80;;;4.07;;
60060;SDS011;45933;51.336;12.612;2023-04-06T00:40:58;6.20;;;4.10;;
60060;SDS011;45933;51.336;12.612;2023-04-06T00:43:23;8.10;;;4.90;;
60060;SDS011;45933;51.336;12.612;2023-04-06T00:45:49;7.67;;;4.67;;
60060;SDS011;45933;51.336;12.612;2023-04-06T00:48:14;6.97;;;4.80;;
60060;SDS011;45933;51.336;12.612;2023-04-06T00:50:40;7.57;;;4.63;;
60060;SDS011;45933;51.336;12.612;2023-04-06T00:53:05;7.83;;;4.77;;
60060;SDS011;45933;51.336;12.612;2023-04-06T00:55:30;7.23;;;4.67;;
60060;SDS011;45933;51.336;12.612;2023-04-06T00:57:56;5.97;;;4.57;;
60060;SDS011;45933;51.336;12.612;2023-04-06T01:00:23;6.57;;;4.37;;
60060;SDS011;45933;51.336;12.612;2023-04-06T01:02:49;7.20;;;4.50;;
60060;SDS011;45933;51.336;12.612;2023-04-06T01:05:15;7.07;;;4.40;;
60060;SDS011;45933;51.336;12.612;2023-04-06T01:07:40;6.77;;;4.30;;
60060;SDS011;45933;51.336;12.612;2023-04-06T01:10:05;7.00;;;4.30;;
60060;SDS011;45933;51.336;12.612;2023-04-06T01:12:31;6.63;;;4.23;;
60060;SDS011;45933;51.336;12.612;2023-04-06T01:14:56;7.70;;;5.13;;
60060;SDS011;45933;51.336;12.612;2023-04-06T01:17:22;7.40;;;4.73;;
60060;SDS011;45933;51.336;12.612;2023-04-06T01:19:47;6.73;;;4.47;;
60060;SDS011;45933;51.336;12.612;2023-04-06T01:22:17;5.90;;;3.80;;
60060;SDS011;45933;51.336;12.612;2023-04-06T01:24:43;8.03;;;4.67;;
60060;SDS011;45933;51.336;12.612;2023-04-06T01:27:08;6.47;;;4.70;;
60060;SDS011;45933;51.336;12.612;2023-04-06T01:29:34;7.70;;;4.13;;
60060;SDS011;45933;51.336;12.612;2023-04-06T01:32:00;5.90;;;4.57;;
60060;SDS011;45933;51.336;12.612;2023-04-06T01:34:25;8.97;;;5.07;;
60060;SDS011;45933;51.336;12.612;2023-04-06T01:36:50;7.40;;;4.60;;
60060;SDS011;45933;51.336;12.612;2023-04-06T01:39:16;6.60;;;4.70;;
60060;SDS011;45933;51.336;12.612;2023-04-06T01:41:41;5.57;;;4.10;;
60060;SDS011;45933;51.336;12.612;2023-04-06T01:44:07;6.70;;;4.80;;
60060;SDS011;45933;51.336;12.612;2023-04-06T01:46:32;7.90;;;4.80;;
60060;SDS011;45933;51.336;12.612;2023-04-06T01:48:57;7.43;;;4.23;;
60060;SDS011;45933;51.336;12.612;2023-04-06T01:51:22;7.87;;;4.47;;
60060;SDS011;45933;51.336;12.612;2023-04-06T01:53:49;5.63;;;3.77;;
60060;SDS011;45933;51.336;12.612;2023-04-06T01:56:14;6.33;;;4.60;;
60060;SDS011;45933;51.336;12.612;2023-04-06T01:58:40;6.67;;;4.00;;
60060;SDS011;45933;51.336;12.612;2023-04-06T02:01:05;5.63;;;3.80;;
60060;SDS011;45933;51.336;12.612;2023-04-06T02:03:30;6.30;;;4.50;;
60060;SDS011;45933;51.336;12.612;2023-04-06T02:05:56;6.53;;;3.87;;
60060;SDS011;45933;51.336;12.612;2023-04-06T02:08:21;4.83;;;4.07;;
60060;SDS011;45933;51.336;12.612;2023-04-06T02:10:47;9.47;;;4.00;;
60060;SDS011;45933;51.336;12.612;2023-04-06T02:13:12;7.27;;;4.63;;
60060;SDS011;45933;51.336;12.612;2023-04-06T02:15:39;5.23;;;3.50;;
60060;SDS011;45933;51.336;12.612;2023-04-06T02:18:05;6.87;;;4.07;;
60060;SDS011;45933;51.336;12.612;2023-04-06T02:20:30;5.60;;;3.90;;
60060;SDS011;45933;51.336;12.612;2023-04-06T02:22:56;7.43;;;4.20;;
60060;SDS011;45933;51.336;12.612;2023-04-06T02:25:23;7.03;;;4.13;;
60060;SDS011;45933;51.336;12.612;2023-04-06T02:27:49;10.73;;;4.50;;
60060;SDS011;45933;51.336;12.612;2023-04-06T02:30:14;5.77;;;4.23;;
60060;SDS011;45933;51.336;12.612;2023-04-06T02:32:39;6.23;;;4.30;;
60060;SDS011;45933;51.336;12.612;2023-04-06T02:35:10;5.60;;;4.13;;
60060;SDS011;45933;51.336;12.612;2023-04-06T02:37:35;5.37;;;4.20;;
60060;SDS011;45933;51.336;12.612;2023-04-06T02:40:01;5.90;;;3.93;;
60060;SDS011;45933;51.336;12.612;2023-04-06T02:42:26;9.20;;;4.77;;
60060;SDS011;45933;51.336;12.612;2023-04-06T02:44:51;6.87;;;4.00;;
60060;SDS011;45933;51.336;12.612;2023-04-06T02:47:16;6.53;;;4.60;;
60060;SDS011;45933;51.336;12.612;2023-04-06T02:49:42;5.43;;;4.27;;
60060;SDS011;45933;51.336;12.612;2023-04-06T02:52:07;6.43;;;4.40;;
60060;SDS011;45933;51.336;12.612;2023-04-06T02:54:32;7.20;;;4.77;;
60060;SDS011;45933;51.336;12.612;2023-04-06T02:56:57;8.03;;;4.73;;
60060;SDS011;45933;51.336;12.612;2023-04-06T02:59:23;7.20;;;4.40;;
60060;SDS011;45933;51.336;12.612;2023-04-06T03:01:48;8.80;;;4.80;;
60060;SDS011;45933;51.336;12.612;2023-04-06T03:04:13;7.87;;;4.63;;
60060;SDS011;45933;51.336;12.612;2023-04-06T03:06:38;7.07;;;4.60;;
60060;SDS011;45933;51.336;12.612;2023-04-06T03:09:05;6.90;;;4.40;;
60060;SDS011;45933;51.336;12.612;2023-04-06T03:11:31;5.13;;;4.27;;
60060;SDS011;45933;51.336;12.612;2023-04-06T03:13:56;7.90;;;4.90;;
60060;SDS011;45933;51.336;12.612;2023-04-06T03:16:21;7.17;;;5.07;;
60060;SDS011;45933;51.336;12.612;2023-04-06T03:18:46;6.73;;;4.60;;
60060;SDS011;45933;51.336;12.612;2023-04-06T03:21:12;6.63;;;4.23;;
60060;SDS011;45933;51.336;12.612;2023-04-06T03:23:40;6.00;;;4.60;;
60060;SDS011;45933;51.336;12.612;2023-04-06T03:26:05;8.07;;;4.67;;
60060;SDS011;45933;51.336;12.612;2023-04-06T03:28:30;5.77;;;4.17;;
60060;SDS011;45933;51.336;12.612;2023-04-06T03:30:56;8.30;;;4.60;;
60060;SDS011;45933;51.336;12.612;2023-04-06T03:33:21;7.43;;;4.87;;
60060;SDS011;45933;51.336;12.612;2023-04-06T03:35:46;6.80;;;4.80;;
60060;SDS011;45933;51.336;12.612;2023-04-06T03:38:11;7.90;;;5.33;;
60060;SDS011;45933;51.336;12.612;2023-04-06T03:40:37;6.60;;;4.87;;
60060;SDS011;45933;51.336;12.612;2023-04-06T03:43:02;7.03;;;4.90;;
60060;SDS011;45933;51.336;12.612;2023-04-06T03:45:27;10.47;;;5.70;;
60060;SDS011;45933;51.336;12.612;2023-04-06T03:47:52;8.47;;;5.00;;
60060;SDS011;45933;51.336;12.612;2023-04-06T03:50:18;6.50;;;4.83;;
60060;SDS011;45933;51.336;12.612;2023-04-06T03:52:43;6.40;;;4.70;;
60060;SDS011;45933;51.336;12.612;2023-04-06T03:55:08;6.70;;;4.60;;
60060;SDS011;45933;51.336;12.612;2023-04-06T03:57:34;10.80;;;5.13;;
60060;SDS011;45933;51.336;12.612;2023-04-06T03:59:59;6.87;;;5.17;;
60060;SDS011;45933;51.336;12.612;2023-04-06T04:02:24;9.13;;;5.20;;
60060;SDS011;45933;51.336;12.612;2023-04-06T04:04:50;6.87;;;4.90;;
60060;SDS011;45933;51.336;12.612;2023-04-06T04:07:15;7.17;;;5.00;;
60060;SDS011;45933;51.336;12.612;2023-04-06T04:09:40;8.17;;;4.77;;
60060;SDS011;45933;51.336;12.612;2023-04-06T04:12:05;7.47;;;5.17;;
60060;SDS011;45933;51.336;12.612;2023-04-06T04:14:31;10.43;;;5.03;;
60060;SDS011;45933;51.336;12.612;2023-04-06T04:16:56;8.83;;;5.40;;
60060;SDS011;45933;51.336;12.612;2023-04-06T04:19:21;6.87;;;4.93;;
60060;SDS011;45933;51.336;12.612;2023-04-06T04:21:47;7.30;;;5.50;;
60060;SDS011;45933;51.336;12.612;2023-04-06T04:24:12;6.57;;;5.30;;
60060;SDS011;45933;51.336;12.612;2023-04-06T04:26:38;9.80;;;5.70;;
60060;SDS011;45933;51.336;12.612;2023-04-06T04:29:04;6.87;;;4.97;;
60060;SDS011;45933;51.336;12.612;2023-04-06T04:31:30;9.80;;;4.90;;
60060;SDS011;45933;51.336;12.612;2023-04-06T04:33:56;8.40;;;5.33;;
60060;SDS011;45933;51.336;12.612;2023-04-06T04:36:22;7.90;;;4.97;;
60060;SDS011;45933;51.336;12.612;2023-04-06T04:38:48;6.93;;;4.90;;
60060;SDS011;45933;51.336;12.612;2023-04-06T04:41:13;7.13;;;5.27;;
60060;SDS011;45933;51.336;12.612;2023-04-06T04:43:38;6.60;;;5.00;;
60060;SDS011;45933;51.336;12.612;2023-04-06T04:46:04;8.43;;;5.00;;
60060;SDS011;45933;51.336;12.612;2023-04-06T04:48:30;7.60;;;4.93;;
60060;SDS011;45933;51.336;12.612;2023-04-06T04:50:55;7.37;;;4.80;;
60060;SDS011;45933;51.336;12.612;2023-04-06T04:53:20;8.57;;;5.70;;
60060;SDS011;45933;51.336;12.612;2023-04-06T04:55:45;13.90;;;7.17;;
60060;SDS011;45933;51.336;12.612;2023-04-06T04:58:11;11.37;;;8.40;;
60060;SDS011;45933;51.336;12.612;2023-04-06T05:00:40;10.00;;;7.50;;
60060;SDS011;45933;51.336;12.612;2023-04-06T05:03:05;14.53;;;6.43;;
60060;SDS011;45933;51.336;12.612;2023-04-06T05:05:31;9.40;;;5.50;;
60060;SDS011;45933;51.336;12.612;2023-04-06T05:07:56;14.43;;;5.73;;
60060;SDS011;45933;51.336;12.612;2023-04-06T05:10:21;11.80;;;5.33;;
60060;SDS011;45933;51.336;12.612;2023-04-06T05:12:47;11.10;;;5.63;;
60060;SDS011;45933;51.336;12.612;2023-04-06T05:15:12;9.53;;;5.40;;
60060;SDS011;45933;51.336;12.612;2023-04-06T05:17:37;13.13;;;5.80;;
60060;SDS011;45933;51.336;12.612;2023-04-06T05:20:03;9.33;;;5.20;;
60060;SDS011;45933;51.336;12.612;2023-04-06T05:22:30;11.73;;;5.23;;
60060;SDS011;45933;51.336;12.612;2023-04-06T05:24:55;8.87;;;5.67;;
60060;SDS011;45933;51.336;12.612;2023-04-06T05:27:21;9.33;;;5.20;;
60060;SDS011;45933;51.336;12.612;2023-04-06T05:29:46;8.27;;;4.70;;
60060;SDS011;45933;51.336;12.612;2023-04-06T05:32:11;8.50;;;5.80;;
60060;SDS011;45933;51.336;12.612;2023-04-06T05:34:37;8.73;;;5.47;;
60060;SDS011;45933;51.336;12.612;2023-04-06T05:37:02;8.50;;;5.30;;
60060;SDS011;45933;51.336;12.612;2023-04-06T05:39:27;6.87;;;5.23;;
60060;SDS011;45933;51.336;12.612;2023-04-06T05:41:53;9.27;;;5.60;;
60060;SDS011;45933;51.336;12.612;2023-04-06T05:44:18;11.20;;;6.00;;
60060;SDS011;45933;51.336;12.612;2023-04-06T05:46:43;12.67;;;6.20;;
60060;SDS011;45933;51.336;12.612;2023-04-06T05:49:08;9.13;;;6.03;;
60060;SDS011;45933;51.336;12.612;2023-04-06T05:51:34;14.83;;;6.23;;
60060;SDS011;45933;51.336;12.612;2023-04-06T05:53:59;13.77;;;5.63;;
60060;SDS011;45933;51.336;12.612;2023-04-06T05:56:24;13.20;;;6.03;;
60060;SDS011;45933;51.336;12.612;2023-04-06T05:58:50;11.50;;;5.80;;
60060;SDS011;45933;51.336;12.612;2023-04-06T06:01:15;12.23;;;8.03;;
60060;SDS011;45933;51.336;12.612;2023-04-06T06:03:40;11.67;;;6.47;;
60060;SDS011;45933;51.336;12.612;2023-04-06T06:06:06;10.37;;;7.57;;
60060;SDS011;45933;51.336;12.612;2023-04-06T06:08:31;13.63;;;7.30;;
60060;SDS011;45933;51.336;12.612;2023-04-06T06:10:56;9.57;;;6.10;;
60060;SDS011;45933;51.336;12.612;2023-04-06T06:13:22;11.10;;;6.20;;
60060;SDS011;45933;51.336;12.612;2023-04-06T06:15:48;11.90;;;5.93;;
60060;SDS011;45933;51.336;12.612;2023-04-06T06:18:14;8.47;;;5.10;;
60060;SDS011;45933;51.336;12.612;2023-04-06T06:20:40;10.50;;;5.20;;
60060;SDS011;45933;51.336;12.612;2023-04-06T06:23:05;10.33;;;5.47;;
60060;SDS011;45933;51.336;12.612;2023-04-06T06:25:30;9.93;;;6.03;;
60060;SDS011;45933;51.336;12.612;2023-04-06T06:27:56;11.40;;;6.80;;
60060;SDS011;45933;51.336;12.612;2023-04-06T06:30:21;8.80;;;5.80;;
60060;SDS011;45933;51.336;12.612;2023-04-06T06:32:47;20.70;;;6.17;;
60060;SDS011;45933;51.336;12.612;2023-04-06T06:35:12;8.67;;;5.23;;
60060;SDS011;45933;51.336;12.612;2023-04-06T06:37:37;12.53;;;5.30;;
60060;SDS011;45933;51.336;12.612;2023-04-06T06:40:02;12.63;;;5.13;;
60060;SDS011;45933;51.336;12.612;2023-04-06T06:42:28;10.63;;;5.13;;
60060;SDS011;45933;51.336;12.612;2023-04-06T06:44:53;9.63;;;5.33;;
60060;SDS011;45933;51.336;12.612;2023-04-06T06:47:19;10.10;;;4.87;;
60060;SDS011;45933;51.336;12.612;2023-04-06T06:49:44;17.67;;;6.77;;
60060;SDS011;45933;51.336;12.612;2023-04-06T06:52:09;7.87;;;5.60;;
60060;SDS011;45933;51.336;12.612;2023-04-06T06:54:35;16.87;;;6.30;;
60060;SDS011;45933;51.336;12.612;2023-04-06T06:57:00;10.10;;;5.40;;
60060;SDS011;45933;51.336;12.612;2023-04-06T06:59:25;7.17;;;5.03;;
60060;SDS011;45933;51.336;12.612;2023-04-06T07:01:51;11.97;;;5.70;;
60060;SDS011;45933;51.336;12.612;2023-04-06T07:04:16;8.43;;;5.33;;
60060;SDS011;45933;51.336;12.612;2023-04-06T07:06:41;10.37;;;6.23;;
60060;SDS011;45933;51.336;12.612;2023-04-06T07:09:07;8.90;;;5.67;;
60060;SDS011;45933;51.336;12.612;2023-04-06T07:11:32;9.90;;;5.60;;
60060;SDS011;45933;51.336;12.612;2023-04-06T07:13:57;8.53;;;5.17;;
60060;SDS011;45933;51.336;12.612;2023-04-06T07:16:23;8.17;;;5.27;;
60060;SDS011;45933;51.336;12.612;2023-04-06T07:18:48;8.00;;;5.57;;
60060;SDS011;45933;51.336;12.612;2023-04-06T07:21:13;7.10;;;4.97;;
60060;SDS011;45933;51.336;12.612;2023-04-06T07:23:39;10.00;;;5.33;;
60060;SDS011;45933;51.336;12.612;2023-04-06T07:26:04;10.40;;;5.43;;
60060;SDS011;45933;51.336;12.612;2023-04-06T07:28:30;8.03;;;5.27;;
60060;SDS011;45933;51.336;12.612;2023-04-06T07:30:55;7.23;;;4.83;;
60060;SDS011;45933;51.336;12.612;2023-04-06T07:33:21;6.53;;;4.93;;
60060;SDS011;45933;51.336;12.612;2023-04-06T07:35:46;8.53;;;4.90;;
60060;SDS011;45933;51.336;12.612;2023-04-06T07:38:12;9.00;;;5.17;;
60060;SDS011;45933;51.336;12.612;2023-04-06T07:40:37;9.23;;;5.33;;
60060;SDS011;45933;51.336;12.612;2023-04-06T07:43:02;7.50;;;4.87;;
60060;SDS011;45933;51.336;12.612;2023-04-06T07:45:28;6.70;;;4.80;;
60060;SDS011;45933;51.336;12.612;2023-04-06T07:47:53;8.03;;;5.10;;
60060;SDS011;45933;51.336;12.612;2023-04-06T07:50:19;7.30;;;5.03;;
60060;SDS011;45933;51.336;12.612;2023-04-06T07:52:44;8.93;;;5.10;;
60060;SDS011;45933;51.336;12.612;2023-04-06T07:55:10;10.47;;;5.53;;
60060;SDS011;45933;51.336;12.612;2023-04-06T07:57:36;8.63;;;5.10;;
60060;SDS011;45933;51.336;12.612;2023-04-06T08:00:01;6.67;;;5.23;;
60060;SDS011;45933;51.336;12.612;2023-04-06T08:02:28;6.60;;;5.13;;
60060;SDS011;45933;51.336;12.612;2023-04-06T08:04:53;8.13;;;5.43;;
60060;SDS011;45933;51.336;12.612;2023-04-06T08:07:19;5.20;;;4.70;;
60060;SDS011;45933;51.336;12.612;2023-04-06T08:09:44;8.77;;;4.80;;
60060;SDS011;45933;51.336;12.612;2023-04-06T08:12:10;7.07;;;4.83;;
60060;SDS011;45933;51.336;12.612;2023-04-06T08:14:35;6.90;;;5.20;;
60060;SDS011;45933;51.336;12.612;2023-04-06T08:17:00;8.60;;;5.40;;
60060;SDS011;45933;51.336;12.612;2023-04-06T08:19:26;5.77;;;4.63;;
60060;SDS011;45933;51.336;12.612;2023-04-06T08:21:51;8.00;;;5.53;;
60060;SDS011;45933;51.336;12.612;2023-04-06T08:24:16;7.63;;;4.80;;
60060;SDS011;45933;51.336;12.612;2023-04-06T08:26:42;9.63;;;4.80;;
60060;SDS011;45933;51.336;12.612;2023-04-06T08:29:07;6.83;;;5.00;;
60060;SDS011;45933;51.336;12.612;2023-04-06T08:31:33;6.37;;;5.13;;
60060;SDS011;45933;51.336;12.612;2023-04-06T08:33:59;7.50;;;5.30;;
60060;SDS011;45933;51.336;12.612;2023-04-06T08:36:24;7.40;;;5.25;;
60060;SDS011;45933;51.336;12.612;2023-04-06T08:38:49;6.47;;;5.03;;
60060;SDS011;45933;51.336;12.612;2023-04-06T08:41:15;8.80;;;5.45;;
60060;SDS011;45933;51.336;12.612;2023-04-06T08:43:46;6.35;;;4.88;;
60060;SDS011;45933;51.336;12.612;2023-04-06T08:46:13;6.57;;;5.28;;
60060;SDS011;45933;51.336;12.612;2023-04-06T08:48:39;7.65;;;4.68;;
60060;SDS011;45933;51.336;12.612;2023-04-06T08:51:05;6.00;;;4.55;;
60060;SDS011;45933;51.336;12.612;2023-04-06T08:53:31;7.13;;;5.00;;
60060;SDS011;45933;51.336;12.612;2023-04-06T08:55:56;6.03;;;4.75;;
60060;SDS011;45933;51.336;12.612;2023-04-06T08:58:23;7.03;;;4.95;;
60060;SDS011;45933;51.336;12.612;2023-04-06T09:00:49;5.60;;;4.55;;
60060;SDS011;45933;51.336;12.612;2023-04-06T09:03:16;6.13;;;4.63;;
60060;SDS011;45933;51.336;12.612;2023-04-06T09:05:42;6.72;;;5.05;;
60060;SDS011;45933;51.336;12.612;2023-04-06T09:08:08;6.05;;;4.55;;
60060;SDS011;45933;51.336;12.612;2023-04-06T09:10:34;9.15;;;5.05;;
60060;SDS011;45933;51.336;12.612;2023-04-06T09:13:05;10.98;;;7.65;;
60060;SDS011;45933;51.336;12.612;2023-04-06T09:15:31;5.95;;;5.18;;
60060;SDS011;45933;51.336;12.612;2023-04-06T09:17:57;7.43;;;5.00;;
60060;SDS011;45933;51.336;12.612;2023-04-06T09:20:23;6.85;;;4.47;;
60060;SDS011;45933;51.336;12.612;2023-04-06T09:22:53;5.63;;;4.45;;
60060;SDS011;45933;51.336;12.612;2023-04-06T09:25:20;5.63;;;4.30;;
60060;SDS011;45933;51.336;12.612;2023-04-06T09:27:47;6.93;;;5.10;;
60060;SDS011;45933;51.336;12.612;2023-04-06T09:30:14;5.72;;;4.70;;
60060;SDS011;45933;51.336;12.612;2023-04-06T09:32:59;6.97;;;4.63;;
60060;SDS011;45933;51.336;12.612;2023-04-06T09:35:24;5.05;;;4.43;;
60060;SDS011;45933;51.336;12.612;2023-04-06T09:37:52;5.90;;;4.43;;
60060;SDS011;45933;51.336;12.612;2023-04-06T09:40:17;6.60;;;5.45;;
60060;SDS011;45933;51.336;12.612;2023-04-06T09:42:47;5.50;;;4.70;;
60060;SDS011;45933;51.336;12.612;2023-04-06T09:45:16;5.88;;;5.10;;
60060;SDS011;45933;51.336;12.612;2023-04-06T09:47:43;5.28;;;4.63;;
60060;SDS011;45933;51.336;12.612;2023-04-06T09:50:10;6.03;;;4.93;;
60060;SDS011;45933;51.336;12.612;2023-04-06T09:52:39;7.13;;;5.22;;
60060;SDS011;45933;51.336;12.612;2023-04-06T09:55:09;7.53;;;5.30;;
60060;SDS011;45933;51.336;12.612;2023-04-06T09:57:50;6.43;;;4.85;;
60060;SDS011;45933;51.336;12.612;2023-04-06T10:00:22;6.28;;;4.97;;
60060;SDS011;45933;51.336;12.612;2023-04-06T10:02:58;9.95;;;5.00;;
60060;SDS011;45933;51.336;12.612;2023-04-06T10:06:04;7.40;;;4.50;;
60060;SDS011;45933;51.336;12.612;2023-04-06T10:08:29;5.30;;;4.55;;
60060;SDS011;45933;51.336;12.612;2023-04-06T10:10:58;5.05;;;3.83;;
60060;SDS011;45933;51.336;12.612;2023-04-06T10:13:23;3.95;;;3.45;;
60060;SDS011;45933;51.336;12.612;2023-04-06T10:15:49;4.30;;;3.90;;
60060;SDS011;45933;51.336;12.612;2023-04-06T10:18:16;4.65;;;3.50;;
60060;SDS011;45933;51.336;12.612;2023-04-06T10:25:56;7.88;;;4.88;;
60060;SDS011;45933;51.336;12.612;2023-04-06T10:28:22;6.82;;;4.90;;
60060;SDS011;45933;51.336;12.612;2023-04-06T10:30:48;6.13;;;4.30;;
60060;SDS011;45933;51.336;12.612;2023-04-06T10:33:14;8.02;;;4.63;;
60060;SDS011;45933;51.336;12.612;2023-04-06T10:35:41;4.90;;;4.10;;
60060;SDS011;45933;51.336;12.612;2023-04-06T10:38:06;4.82;;;3.80;;
60060;SDS011;45933;51.336;12.612;2023-04-06T10:40:35;4.47;;;4.07;;
60060;SDS011;45933;51.336;12.612;2023-04-06T10:43:09;4.25;;;3.85;;
60060;SDS011;45933;51.336;12.612;2023-04-06T10:45:36;4.00;;;3.70;;
60060;SDS011;45933;51.336;12.612;2023-04-06T10:48:12;5.03;;;4.40;;
60060;SDS011;45933;51.336;12.612;2023-04-06T10:50:46;4.63;;;3.78;;
60060;SDS011;45933;51.336;12.612;2023-04-06T10:53:25;5.68;;;3.78;;
60060;SDS011;45933;51.336;12.612;2023-04-06T10:55:51;4.05;;;3.65;;
60060;SDS011;45933;51.336;12.612;2023-04-06T10:58:18;4.72;;;3.88;;
60060;SDS011;45933;51.336;12.612;2023-04-06T11:00:47;6.07;;;4.00;;
60060;SDS011;45933;51.336;12.612;2023-04-06T11:03:13;6.40;;;3.97;;
60060;SDS011;45933;51.336;12.612;2023-04-06T11:05:45;5.97;;;4.30;;
60060;SDS011;45933;51.336;12.612;2023-04-06T11:08:25;7.45;;;4.13;;
60060;SDS011;45933;51.336;12.612;2023-04-06T11:10:52;6.05;;;3.90;;
60060;SDS011;45933;51.336;12.612;2023-04-06T11:13:17;5.72;;;4.03;;
60060;SDS011;45933;51.336;12.612;2023-04-06T11:15:43;6.18;;;3.67;;
60060;SDS011;45933;51.336;12.612;2023-04-06T11:18:08;5.55;;;3.83;;
60060;SDS011;45933;51.336;12.612;2023-04-06T11:20:33;7.10;;;4.35;;
60060;SDS011;45933;51.336;12.612;2023-04-06T11:22:59;4.97;;;3.85;;
60060;SDS011;45933;51.336;12.612;2023-04-06T11:25:25;5.80;;;4.15;;
60060;SDS011;45933;51.336;12.612;2023-04-06T11:27:52;4.80;;;3.70;;
60060;SDS011;45933;51.336;12.612;2023-04-06T11:30:18;4.60;;;3.60;;
60060;SDS011;45933;51.336;12.612;2023-04-06T11:32:44;4.80;;;4.07;;
60060;SDS011;45933;51.336;12.612;2023-04-06T11:35:32;5.20;;;3.38;;
60060;SDS011;45933;51.336;12.612;2023-04-06T11:37:57;6.70;;;4.13;;
60060;SDS011;45933;51.336;12.612;2023-04-06T11:40:23;5.20;;;4.00;;
60060;SDS011;45933;51.336;12.612;2023-04-06T11:42:53;6.65;;;3.72;;
60060;SDS011;45933;51.336;12.612;2023-04-06T11:45:20;5.88;;;3.80;;
60060;SDS011;45933;51.336;12.612;2023-04-06T11:47:45;5.32;;;3.80;;
60060;SDS011;45933;51.336;12.612;2023-04-06T11:50:24;4.15;;;3.70;;
60060;SDS011;45933;51.336;12.612;2023-04-06T11:52:57;4.32;;;3.83;;
60060;SDS011;45933;51.336;12.612;2023-04-06T11:55:25;4.80;;;3.30;;
60060;SDS011;45933;51.336;12.612;2023-04-06T11:57:50;5.03;;;3.60;;
60060;SDS011;45933;51.336;12.612;2023-04-06T12:00:16;5.90;;;4.10;;
60060;SDS011;45933;51.336;12.612;2023-04-06T12:02:45;4.93;;;4.15;;
60060;SDS011;45933;51.336;12.612;2023-04-06T12:05:11;4.45;;;3.75;;
60060;SDS011;45933;51.336;12.612;2023-04-06T12:07:37;4.00;;;3.60;;
60060;SDS011;45933;51.336;12.612;2023-04-06T12:10:02;5.07;;;3.55;;
60060;SDS011;45933;51.336;12.612;2023-04-06T12:12:28;6.53;;;3.63;;
60060;SDS011;45933;51.336;12.612;2023-04-06T12:14:54;5.68;;;3.83;;
60060;SDS011;45933;51.336;12.612;2023-04-06T12:17:20;4.15;;;3.42;;
60060;SDS011;45933;51.336;12.612;2023-04-06T12:19:45;4.18;;;3.72;;
60060;SDS011;45933;51.336;12.612;2023-04-06T12:22:11;4.75;;;3.72;;
60060;SDS011;45933;51.336;12.612;2023-04-06T12:24:36;4.82;;;4.05;;
60060;SDS011;45933;51.336;12.612;2023-04-06T12:27:02;5.93;;;4.15;;
60060;SDS011;45933;51.336;12.612;2023-04-06T12:29:27;4.78;;;3.70;;
60060;SDS011;45933;51.336;12.612;2023-04-06T12:31:52;4.07;;;3.63;;
60060;SDS011;45933;51.336;12.612;2023-04-06T12:34:18;3.95;;;3.42;;
60060;SDS011;45933;51.336;12.612;2023-04-06T12:36:43;4.32;;;3.63;;
60060;SDS011;45933;51.336;12.612;2023-04-06T12:39:08;5.10;;;4.20;;
60060;SDS011;45933;51.336;12.612;2023-04-06T12:41:34;5.25;;;3.65;;
60060;SDS011;45933;51.336;12.612;2023-04-06T12:43:59;4.00;;;3.60;;
60060;SDS011;45933;51.336;12.612;2023-04-06T12:46:25;4.15;;;3.75;;
60060;SDS011;45933;51.336;12.612;2023-04-06T12:48:51;5.03;;;3.38;;
60060;SDS011;45933;51.336;12.612;2023-04-06T12:51:20;5.10;;;4.00;;
60060;SDS011;45933;51.336;12.612;2023-04-06T12:53:46;5.25;;;3.63;;
60060;SDS011;45933;51.336;12.612;2023-04-06T12:56:15;3.67;;;3.38;;
60060;SDS011;45933;51.336;12.612;2023-04-06T12:58:42;5.93;;;3.53;;
60060;SDS011;45933;51.336;12.612;2023-04-06T13:01:08;4.38;;;3.45;;
60060;SDS011;45933;51.336;12.612;2023-04-06T13:03:54;4.90;;;3.65;;
60060;SDS011;45933;51.336;12.612;2023-04-06T13:06:21;6.07;;;3.80;;
60060;SDS011;45933;51.336;12.612;2023-04-06T13:08:46;5.18;;;3.50;;
60060;SDS011;45933;51.336;12.612;2023-04-06T13:11:12;4.45;;;3.53;;
60060;SDS011;45933;51.336;12.612;2023-04-06T13:13:37;4.35;;;3.70;;
60060;SDS011;45933;51.336;12.612;2023-04-06T13:16:07;4.68;;;3.70;;
60060;SDS011;45933;51.336;12.612;2023-04-06T13:18:33;2.97;;;2.72;;
60060;SDS011;45933;51.336;12.612;2023-04-06T13:20:59;5.32;;;3.33;;
60060;SDS011;45933;51.336;12.612;2023-04-06T13:23:25;4.38;;;3.80;;
60060;SDS011;45933;51.336;12.612;2023-04-06T13:25:57;5.30;;;4.15;;
60060;SDS011;45933;51.336;12.612;2023-04-06T13:28:28;4.65;;;3.92;;
60060;SDS011;45933;51.336;12.612;2023-04-06T13:30:54;4.32;;;3.70;;
60060;SDS011;45933;51.336;12.612;2023-04-06T13:33:20;5.38;;;3.65;;
60060;SDS011;45933;51.336;12.612;2023-04-06T13:35:45;4.20;;;3.78;;
60060;SDS011;45933;51.336;12.612;2023-04-06T13:38:11;5.43;;;3.65;;
60060;SDS011;45933;51.336;12.612;2023-04-06T13:40:40;4.43;;;3.33;;
60060;SDS011;45933;51.336;12.612;2023-04-06T13:43:06;4.20;;;3.40;;
60060;SDS011;45933;51.336;12.612;2023-04-06T13:45:31;4.28;;;3.50;;
60060;SDS011;45933;51.336;12.612;2023-04-06T13:47:57;5.85;;;3.55;;
60060;SDS011;45933;51.336;12.612;2023-04-06T13:50:22;4.45;;;3.85;;
60060;SDS011;45933;51.336;12.612;2023-04-06T13:52:47;3.55;;;3.25;;
60060;SDS011;45933;51.336;12.612;2023-04-06T13:55:13;3.97;;;3.20;;
60060;SDS011;45933;51.336;12.612;2023-04-06T13:57:39;3.72;;;3.42;;
60060;SDS011;45933;51.336;12.612;2023-04-06T14:00:06;4.15;;;3.75;;
60060;SDS011;45933;51.336;12.612;2023-04-06T14:02:32;4.38;;;3.42;;
60060;SDS011;45933;51.336;12.612;2023-04-06T14:04:57;5.90;;;4.30;;
60060;SDS011;45933;51.336;12.612;2023-04-06T14:07:22;5.28;;;3.70;;
60060;SDS011;45933;51.336;12.612;2023-04-06T14:09:47;5.63;;;3.65;;
60060;SDS011;45933;51.336;12.612;2023-04-06T14:12:13;3.90;;;3.47;;
60060;SDS011;45933;51.336;12.612;2023-04-06T14:14:38;4.30;;;3.67;;
60060;SDS011;45933;51.336;12.612;2023-04-06T14:17:03;6.78;;;4.38;;
60060;SDS011;45933;51.336;12.612;2023-04-06T14:19:28;5.78;;;3.75;;
60060;SDS011;45933;51.336;12.612;2023-04-06T14:21:54;4.93;;;3.60;;
60060;SDS011;45933;51.336;12.612;2023-04-06T14:24:19;4.45;;;3.83;;
60060;SDS011;45933;51.336;12.612;2023-04-06T14:26:45;4.40;;;3.85;;
60060;SDS011;45933;51.336;12.612;2023-04-06T14:29:11;5.13;;;3.80;;
60060;SDS011;45933;51.336;12.612;2023-04-06T14:31:36;5.85;;;4.10;;
60060;SDS011;45933;51.336;12.612;2023-04-06T14:34:02;7.05;;;4.22;;